FE Warren AFB, Wyoming
Current Conditions -  °F | °C
As of 7:56 AM on Thursday 30 Oct 2014 (Local Time) from KFEW Reporting Station
Clear Clear  
Wind Chill: 24°   Ceiling: Unl
Heat Index: 31°   Visibility: 10mi
Dew Point: 25°   Wind: 8mph
Humidity: 79%   Direction: 280°W
Pressure: 30.32"   Gusts: NA
Location:  41.139°N, 104.862°W
Report Text: KFEW 301356Z AUTO 28007KT 10SM CLR 00/M04 A3032 RMK AO2 SLP262 T10041037 $
Loading
Personal Weather Stations






























Interactive Weather Map
Tropical Storm Tracking
New forecast layout! Learn more

10-Day Weather Forecast

Advertisements
Track Severe Weather on mobile